sensor_id;sensor_type;location;lat;lon;timestamp;P1;durP1;ratioP1;P2;durP2;ratioP2
50683;SDS011;36654;45.042;38.994;2023-01-29T00:01:33;42.47;;;22.20;;
50683;SDS011;36654;45.042;38.994;2023-01-29T00:03:59;49.30;;;21.73;;
50683;SDS011;36654;45.042;38.994;2023-01-29T00:06:25;47.80;;;21.55;;
50683;SDS011;36654;45.042;38.994;2023-01-29T00:08:50;46.45;;;20.10;;
50683;SDS011;36654;45.042;38.994;2023-01-29T00:11:16;47.83;;;22.33;;
50683;SDS011;36654;45.042;38.994;2023-01-29T00:13:42;45.50;;;21.45;;
50683;SDS011;36654;45.042;38.994;2023-01-29T00:16:08;41.67;;;20.33;;
50683;SDS011;36654;45.042;38.994;2023-01-29T00:18:40;44.92;;;21.50;;
50683;SDS011;36654;45.042;38.994;2023-01-29T00:21:09;48.40;;;21.67;;
50683;SDS011;36654;45.042;38.994;2023-01-29T00:23:36;45.80;;;21.77;;
50683;SDS011;36654;45.042;38.994;2023-01-29T00:26:02;43.80;;;21.27;;
50683;SDS011;36654;45.042;38.994;2023-01-29T00:28:28;48.72;;;21.65;;
50683;SDS011;36654;45.042;38.994;2023-01-29T00:30:53;44.67;;;20.80;;
50683;SDS011;36654;45.042;38.994;2023-01-29T00:33:19;40.55;;;20.98;;
50683;SDS011;36654;45.042;38.994;2023-01-29T00:35:44;45.40;;;21.08;;
50683;SDS011;36654;45.042;38.994;2023-01-29T00:38:10;47.97;;;21.85;;
50683;SDS011;36654;45.042;38.994;2023-01-29T00:40:36;44.30;;;19.23;;
50683;SDS011;36654;45.042;38.994;2023-01-29T00:43:21;45.72;;;21.13;;
50683;SDS011;36654;45.042;38.994;2023-01-29T00:46:06;42.25;;;22.08;;
50683;SDS011;36654;45.042;38.994;2023-01-29T00:48:32;49.70;;;20.20;;
50683;SDS011;36654;45.042;38.994;2023-01-29T00:50:58;42.08;;;20.83;;
50683;SDS011;36654;45.042;38.994;2023-01-29T00:53:24;45.70;;;21.00;;
50683;SDS011;36654;45.042;38.994;2023-01-29T00:55:49;48.28;;;22.70;;
50683;SDS011;36654;45.042;38.994;2023-01-29T00:58:15;43.58;;;21.88;;
50683;SDS011;36654;45.042;38.994;2023-01-29T01:00:46;41.95;;;19.83;;
50683;SDS011;36654;45.042;38.994;2023-01-29T01:03:12;37.90;;;18.27;;
50683;SDS011;36654;45.042;38.994;2023-01-29T01:05:38;43.22;;;20.27;;
50683;SDS011;36654;45.042;38.994;2023-01-29T01:08:03;41.70;;;19.90;;
50683;SDS011;36654;45.042;38.994;2023-01-29T01:10:56;44.38;;;21.13;;
50683;SDS011;36654;45.042;38.994;2023-01-29T01:13:26;45.67;;;21.90;;
50683;SDS011;36654;45.042;38.994;2023-01-29T01:15:52;39.13;;;19.17;;
50683;SDS011;36654;45.042;38.994;2023-01-29T01:18:18;41.58;;;19.05;;
50683;SDS011;36654;45.042;38.994;2023-01-29T01:20:46;42.75;;;20.13;;
50683;SDS011;36654;45.042;38.994;2023-01-29T01:23:16;36.00;;;19.75;;
50683;SDS011;36654;45.042;38.994;2023-01-29T01:25:45;40.55;;;19.98;;
50683;SDS011;36654;45.042;38.994;2023-01-29T01:28:10;40.83;;;18.63;;
50683;SDS011;36654;45.042;38.994;2023-01-29T01:30:36;40.92;;;20.98;;
50683;SDS011;36654;45.042;38.994;2023-01-29T01:33:03;39.53;;;19.58;;
50683;SDS011;36654;45.042;38.994;2023-01-29T01:35:29;44.95;;;21.63;;
50683;SDS011;36654;45.042;38.994;2023-01-29T01:37:54;45.88;;;21.23;;
50683;SDS011;36654;45.042;38.994;2023-01-29T01:40:20;40.78;;;18.77;;
50683;SDS011;36654;45.042;38.994;2023-01-29T01:42:51;45.17;;;20.92;;
50683;SDS011;36654;45.042;38.994;2023-01-29T01:45:21;40.35;;;19.73;;
50683;SDS011;36654;45.042;38.994;2023-01-29T01:47:58;40.58;;;21.13;;
50683;SDS011;36654;45.042;38.994;2023-01-29T01:50:51;39.70;;;20.05;;
50683;SDS011;36654;45.042;38.994;2023-01-29T01:53:24;47.58;;;20.98;;
50683;SDS011;36654;45.042;38.994;2023-01-29T01:55:59;42.35;;;19.85;;
50683;SDS011;36654;45.042;38.994;2023-01-29T01:58:45;42.20;;;21.08;;
50683;SDS011;36654;45.042;38.994;2023-01-29T02:01:14;47.05;;;20.70;;
50683;SDS011;36654;45.042;38.994;2023-01-29T02:03:45;45.22;;;20.30;;
50683;SDS011;36654;45.042;38.994;2023-01-29T02:09:21;43.22;;;19.65;;
50683;SDS011;36654;45.042;38.994;2023-01-29T02:12:03;44.65;;;20.50;;
50683;SDS011;36654;45.042;38.994;2023-01-29T02:14:31;50.35;;;21.77;;
50683;SDS011;36654;45.042;38.994;2023-01-29T02:17:01;44.28;;;19.65;;
50683;SDS011;36654;45.042;38.994;2023-01-29T02:22:40;46.45;;;22.45;;
50683;SDS011;36654;45.042;38.994;2023-01-29T02:34:00;41.67;;;20.02;;
50683;SDS011;36654;45.042;38.994;2023-01-29T02:44:58;49.50;;;23.50;;
50683;SDS011;36654;45.042;38.994;2023-01-29T02:47:34;41.88;;;20.85;;
50683;SDS011;36654;45.042;38.994;2023-01-29T02:50:16;44.83;;;21.38;;
50683;SDS011;36654;45.042;38.994;2023-01-29T02:52:57;47.95;;;21.38;;
50683;SDS011;36654;45.042;38.994;2023-01-29T02:55:41;46.53;;;21.40;;
50683;SDS011;36654;45.042;38.994;2023-01-29T02:58:19;46.95;;;21.65;;
50683;SDS011;36654;45.042;38.994;2023-01-29T03:00:47;47.00;;;22.20;;
50683;SDS011;36654;45.042;38.994;2023-01-29T03:03:15;51.65;;;22.77;;
50683;SDS011;36654;45.042;38.994;2023-01-29T03:05:59;42.17;;;21.85;;
50683;SDS011;36654;45.042;38.994;2023-01-29T03:08:43;41.47;;;19.35;;
50683;SDS011;36654;45.042;38.994;2023-01-29T03:11:14;43.45;;;21.02;;
50683;SDS011;36654;45.042;38.994;2023-01-29T03:14:24;48.65;;;22.08;;
50683;SDS011;36654;45.042;38.994;2023-01-29T03:16:50;48.53;;;23.00;;
50683;SDS011;36654;45.042;38.994;2023-01-29T03:22:06;45.30;;;22.45;;
50683;SDS011;36654;45.042;38.994;2023-01-29T03:27:50;48.53;;;21.10;;
50683;SDS011;36654;45.042;38.994;2023-01-29T03:30:39;50.85;;;22.65;;
50683;SDS011;36654;45.042;38.994;2023-01-29T03:33:27;46.45;;;20.05;;
50683;SDS011;36654;45.042;38.994;2023-01-29T03:35:58;42.10;;;21.77;;
50683;SDS011;36654;45.042;38.994;2023-01-29T03:38:30;46.33;;;22.48;;
50683;SDS011;36654;45.042;38.994;2023-01-29T03:46:16;44.63;;;21.80;;
50683;SDS011;36654;45.042;38.994;2023-01-29T03:51:35;45.08;;;21.67;;
50683;SDS011;36654;45.042;38.994;2023-01-29T03:56:58;47.55;;;21.10;;
50683;SDS011;36654;45.042;38.994;2023-01-29T03:59:38;44.58;;;20.80;;
50683;SDS011;36654;45.042;38.994;2023-01-29T04:02:23;51.08;;;21.92;;
50683;SDS011;36654;45.042;38.994;2023-01-29T04:04:56;43.50;;;21.35;;
50683;SDS011;36654;45.042;38.994;2023-01-29T04:07:26;48.63;;;22.42;;
50683;SDS011;36654;45.042;38.994;2023-01-29T04:12:31;44.97;;;21.08;;
50683;SDS011;36654;45.042;38.994;2023-01-29T04:15:06;48.17;;;22.30;;
50683;SDS011;36654;45.042;38.994;2023-01-29T04:17:40;44.00;;;21.33;;
50683;SDS011;36654;45.042;38.994;2023-01-29T04:20:09;43.05;;;21.27;;
50683;SDS011;36654;45.042;38.994;2023-01-29T04:22:36;44.83;;;19.95;;
50683;SDS011;36654;45.042;38.994;2023-01-29T04:25:07;47.42;;;21.55;;
50683;SDS011;36654;45.042;38.994;2023-01-29T04:31:02;43.08;;;20.75;;
50683;SDS011;36654;45.042;38.994;2023-01-29T04:36:27;45.92;;;22.23;;
50683;SDS011;36654;45.042;38.994;2023-01-29T04:47:36;49.03;;;21.63;;
50683;SDS011;36654;45.042;38.994;2023-01-29T04:52:59;53.47;;;24.00;;
50683;SDS011;36654;45.042;38.994;2023-01-29T04:55:41;51.53;;;23.10;;
50683;SDS011;36654;45.042;38.994;2023-01-29T05:01:12;44.28;;;21.23;;
50683;SDS011;36654;45.042;38.994;2023-01-29T05:03:41;52.03;;;22.55;;
50683;SDS011;36654;45.042;38.994;2023-01-29T05:06:09;49.15;;;22.15;;
50683;SDS011;36654;45.042;38.994;2023-01-29T05:08:36;54.60;;;24.38;;
50683;SDS011;36654;45.042;38.994;2023-01-29T05:11:03;54.63;;;23.67;;
50683;SDS011;36654;45.042;38.994;2023-01-29T05:13:30;49.08;;;22.00;;
50683;SDS011;36654;45.042;38.994;2023-01-29T05:16:03;51.10;;;22.45;;
50683;SDS011;36654;45.042;38.994;2023-01-29T05:18:34;46.95;;;22.33;;
50683;SDS011;36654;45.042;38.994;2023-01-29T05:21:03;54.67;;;22.80;;
50683;SDS011;36654;45.042;38.994;2023-01-29T05:23:31;49.65;;;23.10;;
50683;SDS011;36654;45.042;38.994;2023-01-29T05:25:57;50.33;;;22.52;;
50683;SDS011;36654;45.042;38.994;2023-01-29T05:28:22;51.30;;;21.90;;
50683;SDS011;36654;45.042;38.994;2023-01-29T05:30:49;49.72;;;23.08;;
50683;SDS011;36654;45.042;38.994;2023-01-29T05:33:20;52.92;;;21.95;;
50683;SDS011;36654;45.042;38.994;2023-01-29T05:35:50;56.05;;;23.30;;
50683;SDS011;36654;45.042;38.994;2023-01-29T05:38:16;47.58;;;21.63;;
50683;SDS011;36654;45.042;38.994;2023-01-29T05:40:42;51.83;;;23.20;;
50683;SDS011;36654;45.042;38.994;2023-01-29T05:43:18;46.20;;;22.00;;
50683;SDS011;36654;45.042;38.994;2023-01-29T05:45:55;52.45;;;24.23;;
50683;SDS011;36654;45.042;38.994;2023-01-29T05:48:22;51.33;;;22.60;;
50683;SDS011;36654;45.042;38.994;2023-01-29T05:50:48;50.92;;;24.05;;
50683;SDS011;36654;45.042;38.994;2023-01-29T05:53:13;54.80;;;25.67;;
50683;SDS011;36654;45.042;38.994;2023-01-29T05:55:42;48.65;;;23.35;;
50683;SDS011;36654;45.042;38.994;2023-01-29T05:58:08;51.28;;;23.95;;
50683;SDS011;36654;45.042;38.994;2023-01-29T06:00:34;50.00;;;25.23;;
50683;SDS011;36654;45.042;38.994;2023-01-29T06:02:59;53.75;;;25.13;;
50683;SDS011;36654;45.042;38.994;2023-01-29T06:05:25;52.97;;;25.23;;
50683;SDS011;36654;45.042;38.994;2023-01-29T06:07:51;55.92;;;25.13;;
50683;SDS011;36654;45.042;38.994;2023-01-29T06:10:16;50.25;;;24.10;;
50683;SDS011;36654;45.042;38.994;2023-01-29T06:12:42;54.28;;;25.98;;
50683;SDS011;36654;45.042;38.994;2023-01-29T06:15:08;57.75;;;26.30;;
50683;SDS011;36654;45.042;38.994;2023-01-29T06:17:35;46.13;;;24.13;;
50683;SDS011;36654;45.042;38.994;2023-01-29T06:20:01;54.10;;;25.00;;
50683;SDS011;36654;45.042;38.994;2023-01-29T06:22:27;55.88;;;24.92;;
50683;SDS011;36654;45.042;38.994;2023-01-29T06:24:53;51.85;;;24.98;;
50683;SDS011;36654;45.042;38.994;2023-01-29T06:27:18;51.25;;;26.02;;
50683;SDS011;36654;45.042;38.994;2023-01-29T06:29:44;49.58;;;25.10;;
50683;SDS011;36654;45.042;38.994;2023-01-29T06:32:10;60.88;;;25.70;;
50683;SDS011;36654;45.042;38.994;2023-01-29T06:34:35;58.28;;;27.83;;
50683;SDS011;36654;45.042;38.994;2023-01-29T06:37:01;55.20;;;25.33;;
50683;SDS011;36654;45.042;38.994;2023-01-29T06:39:26;48.25;;;25.30;;
50683;SDS011;36654;45.042;38.994;2023-01-29T06:41:52;55.35;;;26.10;;
50683;SDS011;36654;45.042;38.994;2023-01-29T06:44:17;50.22;;;24.20;;
50683;SDS011;36654;45.042;38.994;2023-01-29T06:46:43;49.63;;;24.55;;
50683;SDS011;36654;45.042;38.994;2023-01-29T06:49:09;52.15;;;24.05;;
50683;SDS011;36654;45.042;38.994;2023-01-29T06:51:34;47.60;;;25.35;;
50683;SDS011;36654;45.042;38.994;2023-01-29T06:54:00;52.45;;;24.58;;
50683;SDS011;36654;45.042;38.994;2023-01-29T06:56:25;52.72;;;23.73;;
50683;SDS011;36654;45.042;38.994;2023-01-29T06:58:51;51.50;;;24.40;;
50683;SDS011;36654;45.042;38.994;2023-01-29T07:01:17;51.13;;;24.67;;
50683;SDS011;36654;45.042;38.994;2023-01-29T07:03:42;46.85;;;23.40;;
50683;SDS011;36654;45.042;38.994;2023-01-29T07:06:08;59.47;;;26.23;;
50683;SDS011;36654;45.042;38.994;2023-01-29T07:08:35;51.00;;;25.20;;
50683;SDS011;36654;45.042;38.994;2023-01-29T07:11:04;52.97;;;25.15;;
50683;SDS011;36654;45.042;38.994;2023-01-29T07:13:31;52.47;;;27.50;;
50683;SDS011;36654;45.042;38.994;2023-01-29T07:15:58;48.83;;;24.45;;
50683;SDS011;36654;45.042;38.994;2023-01-29T07:18:24;49.75;;;24.02;;
50683;SDS011;36654;45.042;38.994;2023-01-29T07:20:51;51.70;;;26.52;;
50683;SDS011;36654;45.042;38.994;2023-01-29T07:23:16;56.15;;;25.75;;
50683;SDS011;36654;45.042;38.994;2023-01-29T07:25:42;49.10;;;25.70;;
50683;SDS011;36654;45.042;38.994;2023-01-29T07:28:08;46.78;;;23.27;;
50683;SDS011;36654;45.042;38.994;2023-01-29T07:30:34;51.92;;;24.38;;
50683;SDS011;36654;45.042;38.994;2023-01-29T07:33:03;52.13;;;23.48;;
50683;SDS011;36654;45.042;38.994;2023-01-29T07:35:34;46.15;;;24.02;;
50683;SDS011;36654;45.042;38.994;2023-01-29T07:38:01;50.63;;;24.92;;
50683;SDS011;36654;45.042;38.994;2023-01-29T07:40:26;49.25;;;24.38;;
50683;SDS011;36654;45.042;38.994;2023-01-29T07:43:02;54.42;;;27.08;;
50683;SDS011;36654;45.042;38.994;2023-01-29T07:45:29;56.08;;;25.38;;
50683;SDS011;36654;45.042;38.994;2023-01-29T07:47:56;55.22;;;26.70;;
50683;SDS011;36654;45.042;38.994;2023-01-29T07:50:25;59.10;;;28.27;;
50683;SDS011;36654;45.042;38.994;2023-01-29T07:52:55;52.03;;;27.33;;
50683;SDS011;36654;45.042;38.994;2023-01-29T07:55:20;56.42;;;26.30;;
50683;SDS011;36654;45.042;38.994;2023-01-29T07:57:46;45.03;;;23.33;;
50683;SDS011;36654;45.042;38.994;2023-01-29T08:00:12;54.90;;;26.63;;
50683;SDS011;36654;45.042;38.994;2023-01-29T08:02:39;51.03;;;27.95;;
50683;SDS011;36654;45.042;38.994;2023-01-29T08:05:05;61.85;;;28.08;;
50683;SDS011;36654;45.042;38.994;2023-01-29T08:07:31;58.17;;;27.65;;
50683;SDS011;36654;45.042;38.994;2023-01-29T08:09:57;58.42;;;28.27;;
50683;SDS011;36654;45.042;38.994;2023-01-29T08:12:23;60.65;;;29.05;;
50683;SDS011;36654;45.042;38.994;2023-01-29T08:14:48;60.85;;;28.67;;
50683;SDS011;36654;45.042;38.994;2023-01-29T08:17:14;62.55;;;29.17;;
50683;SDS011;36654;45.042;38.994;2023-01-29T08:19:40;57.53;;;28.63;;
50683;SDS011;36654;45.042;38.994;2023-01-29T08:22:05;58.35;;;28.13;;
50683;SDS011;36654;45.042;38.994;2023-01-29T08:24:31;70.43;;;29.85;;
50683;SDS011;36654;45.042;38.994;2023-01-29T08:26:56;56.97;;;27.95;;
50683;SDS011;36654;45.042;38.994;2023-01-29T08:29:22;61.70;;;30.67;;
50683;SDS011;36654;45.042;38.994;2023-01-29T08:31:48;60.95;;;28.52;;
50683;SDS011;36654;45.042;38.994;2023-01-29T08:34:13;60.10;;;30.10;;
50683;SDS011;36654;45.042;38.994;2023-01-29T08:36:39;59.22;;;28.80;;
50683;SDS011;36654;45.042;38.994;2023-01-29T08:39:05;56.55;;;29.67;;
50683;SDS011;36654;45.042;38.994;2023-01-29T08:41:30;55.33;;;28.17;;
50683;SDS011;36654;45.042;38.994;2023-01-29T08:43:56;56.70;;;27.65;;
50683;SDS011;36654;45.042;38.994;2023-01-29T08:46:22;48.70;;;27.67;;
50683;SDS011;36654;45.042;38.994;2023-01-29T08:48:48;60.22;;;27.48;;
50683;SDS011;36654;45.042;38.994;2023-01-29T08:51:13;57.92;;;27.38;;
50683;SDS011;36654;45.042;38.994;2023-01-29T08:53:39;51.83;;;27.20;;
50683;SDS011;36654;45.042;38.994;2023-01-29T08:56:05;58.10;;;27.00;;
50683;SDS011;36654;45.042;38.994;2023-01-29T08:58:31;55.10;;;27.33;;
50683;SDS011;36654;45.042;38.994;2023-01-29T09:01:03;51.03;;;27.23;;
50683;SDS011;36654;45.042;38.994;2023-01-29T09:03:30;65.55;;;27.98;;
50683;SDS011;36654;45.042;38.994;2023-01-29T09:05:55;52.88;;;24.20;;
50683;SDS011;36654;45.042;38.994;2023-01-29T09:08:21;48.45;;;23.38;;
50683;SDS011;36654;45.042;38.994;2023-01-29T09:10:46;46.78;;;24.10;;
50683;SDS011;36654;45.042;38.994;2023-01-29T09:13:12;51.90;;;25.65;;
50683;SDS011;36654;45.042;38.994;2023-01-29T09:15:37;52.75;;;27.15;;
50683;SDS011;36654;45.042;38.994;2023-01-29T09:18:03;57.50;;;27.13;;
50683;SDS011;36654;45.042;38.994;2023-01-29T09:20:29;53.15;;;27.55;;
50683;SDS011;36654;45.042;38.994;2023-01-29T09:22:55;52.75;;;25.27;;
50683;SDS011;36654;45.042;38.994;2023-01-29T09:25:22;49.55;;;25.05;;
50683;SDS011;36654;45.042;38.994;2023-01-29T09:27:48;51.72;;;25.88;;
50683;SDS011;36654;45.042;38.994;2023-01-29T09:30:14;41.63;;;24.13;;
50683;SDS011;36654;45.042;38.994;2023-01-29T09:32:39;55.85;;;26.67;;
50683;SDS011;36654;45.042;38.994;2023-01-29T09:35:05;43.47;;;24.17;;
50683;SDS011;36654;45.042;38.994;2023-01-29T09:37:31;53.00;;;25.20;;
50683;SDS011;36654;45.042;38.994;2023-01-29T09:39:56;52.50;;;25.67;;
50683;SDS011;36654;45.042;38.994;2023-01-29T09:42:56;48.88;;;24.85;;
50683;SDS011;36654;45.042;38.994;2023-01-29T09:45:20;55.63;;;24.27;;
50683;SDS011;36654;45.042;38.994;2023-01-29T09:47:48;48.05;;;25.70;;
50683;SDS011;36654;45.042;38.994;2023-01-29T09:53:04;48.63;;;24.13;;
50683;SDS011;36654;45.042;38.994;2023-01-29T09:55:54;45.88;;;24.40;;
50683;SDS011;36654;45.042;38.994;2023-01-29T09:58:28;47.67;;;22.40;;
50683;SDS011;36654;45.042;38.994;2023-01-29T10:17:49;36.17;;;17.98;;
50683;SDS011;36654;45.042;38.994;2023-01-29T10:20:26;33.67;;;17.48;;
50683;SDS011;36654;45.042;38.994;2023-01-29T10:23:22;39.78;;;18.08;;
50683;SDS011;36654;45.042;38.994;2023-01-29T10:25:51;38.42;;;18.55;;
50683;SDS011;36654;45.042;38.994;2023-01-29T10:30:47;30.70;;;16.42;;
50683;SDS011;36654;45.042;38.994;2023-01-29T10:33:21;35.10;;;18.48;;
50683;SDS011;36654;45.042;38.994;2023-01-29T10:35:57;34.05;;;17.30;;
50683;SDS011;36654;45.042;38.994;2023-01-29T10:52:38;42.70;;;18.30;;
50683;SDS011;36654;45.042;38.994;2023-01-29T11:00:20;31.88;;;15.50;;
50683;SDS011;36654;45.042;38.994;2023-01-29T11:02:49;28.38;;;15.07;;
50683;SDS011;36654;45.042;38.994;2023-01-29T11:05:26;28.33;;;15.32;;
50683;SDS011;36654;45.042;38.994;2023-01-29T11:08:06;31.45;;;15.55;;
50683;SDS011;36654;45.042;38.994;2023-01-29T11:10:37;29.42;;;16.25;;
50683;SDS011;36654;45.042;38.994;2023-01-29T11:13:12;28.33;;;14.25;;
50683;SDS011;36654;45.042;38.994;2023-01-29T11:15:39;31.60;;;17.48;;
50683;SDS011;36654;45.042;38.994;2023-01-29T11:18:12;31.42;;;15.35;;
50683;SDS011;36654;45.042;38.994;2023-01-29T11:20:43;31.85;;;15.48;;
50683;SDS011;36654;45.042;38.994;2023-01-29T11:23:23;30.63;;;14.23;;
50683;SDS011;36654;45.042;38.994;2023-01-29T11:25:52;24.63;;;10.90;;
50683;SDS011;36654;45.042;38.994;2023-01-29T11:31:03;27.80;;;11.98;;
50683;SDS011;36654;45.042;38.994;2023-01-29T11:33:42;19.50;;;10.75;;
50683;SDS011;36654;45.042;38.994;2023-01-29T11:39:12;24.95;;;10.70;;
50683;SDS011;36654;45.042;38.994;2023-01-29T11:42:03;20.00;;;10.90;;
50683;SDS011;36654;45.042;38.994;2023-01-29T11:44:32;17.23;;;9.43;;
50683;SDS011;36654;45.042;38.994;2023-01-29T11:50:02;17.08;;;8.50;;
50683;SDS011;36654;45.042;38.994;2023-01-29T11:52:37;18.27;;;8.50;;
50683;SDS011;36654;45.042;38.994;2023-01-29T11:55:12;18.00;;;8.18;;
50683;SDS011;36654;45.042;38.994;2023-01-29T11:57:45;18.23;;;7.90;;
50683;SDS011;36654;45.042;38.994;2023-01-29T12:00:27;24.15;;;11.77;;
50683;SDS011;36654;45.042;38.994;2023-01-29T12:03:06;28.45;;;15.88;;
50683;SDS011;36654;45.042;38.994;2023-01-29T12:05:54;29.60;;;14.00;;
50683;SDS011;36654;45.042;38.994;2023-01-29T12:08:33;30.88;;;15.88;;
50683;SDS011;36654;45.042;38.994;2023-01-29T12:11:46;27.98;;;15.73;;
50683;SDS011;36654;45.042;38.994;2023-01-29T12:13:58;27.08;;;14.77;;
50683;SDS011;36654;45.042;38.994;2023-01-29T12:16:27;30.52;;;16.05;;
50683;SDS011;36654;45.042;38.994;2023-01-29T12:19:01;28.92;;;15.50;;
50683;SDS011;36654;45.042;38.994;2023-01-29T12:21:42;24.00;;;13.63;;
50683;SDS011;36654;45.042;38.994;2023-01-29T12:24:19;26.02;;;15.02;;
50683;SDS011;36654;45.042;38.994;2023-01-29T12:27:18;33.33;;;15.52;;
50683;SDS011;36654;45.042;38.994;2023-01-29T12:35:37;26.13;;;14.10;;
50683;SDS011;36654;45.042;38.994;2023-01-29T12:40:42;28.27;;;15.90;;
50683;SDS011;36654;45.042;38.994;2023-01-29T12:43:14;33.67;;;17.40;;
50683;SDS011;36654;45.042;38.994;2023-01-29T12:45:42;27.38;;;14.63;;
50683;SDS011;36654;45.042;38.994;2023-01-29T12:48:12;26.35;;;14.57;;
50683;SDS011;36654;45.042;38.994;2023-01-29T12:50:43;26.75;;;14.38;;
50683;SDS011;36654;45.042;38.994;2023-01-29T12:56:13;24.00;;;14.52;;
50683;SDS011;36654;45.042;38.994;2023-01-29T12:58:47;25.83;;;12.38;;
50683;SDS011;36654;45.042;38.994;2023-01-29T13:01:33;19.52;;;11.43;;
50683;SDS011;36654;45.042;38.994;2023-01-29T13:06:49;25.20;;;11.10;;
50683;SDS011;36654;45.042;38.994;2023-01-29T13:09:24;20.63;;;11.70;;
50683;SDS011;36654;45.042;38.994;2023-01-29T13:11:53;17.77;;;11.15;;
50683;SDS011;36654;45.042;38.994;2023-01-29T13:15:12;21.10;;;10.52;;
50683;SDS011;36654;45.042;38.994;2023-01-29T13:17:41;18.50;;;9.00;;
50683;SDS011;36654;45.042;38.994;2023-01-29T13:20:10;23.27;;;9.77;;
50683;SDS011;36654;45.042;38.994;2023-01-29T13:22:40;16.58;;;10.18;;
50683;SDS011;36654;45.042;38.994;2023-01-29T13:25:13;15.13;;;8.15;;
50683;SDS011;36654;45.042;38.994;2023-01-29T13:27:42;20.80;;;10.60;;
50683;SDS011;36654;45.042;38.994;2023-01-29T13:30:22;19.65;;;11.27;;
50683;SDS011;36654;45.042;38.994;2023-01-29T13:32:50;18.88;;;9.25;;
50683;SDS011;36654;45.042;38.994;2023-01-29T13:35:18;16.23;;;10.07;;
50683;SDS011;36654;45.042;38.994;2023-01-29T13:37:50;17.27;;;10.98;;
50683;SDS011;36654;45.042;38.994;2023-01-29T13:40:22;27.45;;;13.50;;
50683;SDS011;36654;45.042;38.994;2023-01-29T13:42:51;27.20;;;13.90;;
50683;SDS011;36654;45.042;38.994;2023-01-29T13:45:34;25.52;;;13.55;;
50683;SDS011;36654;45.042;38.994;2023-01-29T13:48:09;28.38;;;15.45;;
50683;SDS011;36654;45.042;38.994;2023-01-29T13:50:46;26.17;;;14.20;;
50683;SDS011;36654;45.042;38.994;2023-01-29T13:53:34;28.80;;;14.73;;
50683;SDS011;36654;45.042;38.994;2023-01-29T13:58:53;26.65;;;14.63;;
50683;SDS011;36654;45.042;38.994;2023-01-29T14:04:20;24.88;;;12.35;;
50683;SDS011;36654;45.042;38.994;2023-01-29T14:06:56;23.35;;;13.23;;
50683;SDS011;36654;45.042;38.994;2023-01-29T14:09:33;25.85;;;13.38;;
50683;SDS011;36654;45.042;38.994;2023-01-29T14:14:50;25.10;;;12.65;;
50683;SDS011;36654;45.042;38.994;2023-01-29T14:17:26;22.23;;;13.15;;
50683;SDS011;36654;45.042;38.994;2023-01-29T14:20:00;23.85;;;12.50;;
50683;SDS011;36654;45.042;38.994;2023-01-29T14:25:15;27.30;;;12.50;;
50683;SDS011;36654;45.042;38.994;2023-01-29T14:27:46;31.02;;;12.70;;
50683;SDS011;36654;45.042;38.994;2023-01-29T14:30:15;24.33;;;11.90;;
50683;SDS011;36654;45.042;38.994;2023-01-29T14:32:45;25.45;;;13.32;;
50683;SDS011;36654;45.042;38.994;2023-01-29T14:35:23;23.20;;;11.77;;
50683;SDS011;36654;45.042;38.994;2023-01-29T14:37:58;18.73;;;11.70;;
50683;SDS011;36654;45.042;38.994;2023-01-29T14:40:27;20.23;;;11.45;;
50683;SDS011;36654;45.042;38.994;2023-01-29T14:43:02;22.25;;;12.70;;
50683;SDS011;36654;45.042;38.994;2023-01-29T14:45:37;28.33;;;13.57;;
50683;SDS011;36654;45.042;38.994;2023-01-29T14:55:51;22.23;;;11.35;;
50683;SDS011;36654;45.042;38.994;2023-01-29T14:58:21;20.40;;;11.52;;
50683;SDS011;36654;45.042;38.994;2023-01-29T15:01:00;23.02;;;11.65;;
50683;SDS011;36654;45.042;38.994;2023-01-29T15:06:01;22.05;;;11.73;;
50683;SDS011;36654;45.042;38.994;2023-01-29T15:08:31;21.15;;;11.30;;
50683;SDS011;36654;45.042;38.994;2023-01-29T15:11:13;21.88;;;10.80;;
50683;SDS011;36654;45.042;38.994;2023-01-29T15:16:49;18.48;;;11.18;;
50683;SDS011;36654;45.042;38.994;2023-01-29T15:19:22;22.23;;;11.15;;
50683;SDS011;36654;45.042;38.994;2023-01-29T15:22:02;17.95;;;10.93;;
50683;SDS011;36654;45.042;38.994;2023-01-29T15:24:34;22.58;;;11.82;;
50683;SDS011;36654;45.042;38.994;2023-01-29T15:27:01;22.13;;;11.63;;
50683;SDS011;36654;45.042;38.994;2023-01-29T15:29:28;21.70;;;11.13;;
50683;SDS011;36654;45.042;38.994;2023-01-29T15:31:54;21.05;;;12.23;;
50683;SDS011;36654;45.042;38.994;2023-01-29T15:34:21;19.42;;;11.93;;
50683;SDS011;36654;45.042;38.994;2023-01-29T15:36:47;19.40;;;11.15;;
50683;SDS011;36654;45.042;38.994;2023-01-29T15:39:18;22.92;;;11.80;;
50683;SDS011;36654;45.042;38.994;2023-01-29T15:41:47;22.35;;;13.00;;
50683;SDS011;36654;45.042;38.994;2023-01-29T15:44:21;22.08;;;12.35;;
50683;SDS011;36654;45.042;38.994;2023-01-29T15:46:49;26.20;;;13.80;;
50683;SDS011;36654;45.042;38.994;2023-01-29T15:49:39;22.40;;;13.43;;
50683;SDS011;36654;45.042;38.994;2023-01-29T15:52:07;20.40;;;13.48;;
50683;SDS011;36654;45.042;38.994;2023-01-29T15:54:40;23.90;;;13.38;;
50683;SDS011;36654;45.042;38.994;2023-01-29T15:57:05;28.52;;;16.52;;
50683;SDS011;36654;45.042;38.994;2023-01-29T15:59:52;25.77;;;14.20;;
50683;SDS011;36654;45.042;38.994;2023-01-29T16:04:59;24.55;;;13.65;;
50683;SDS011;36654;45.042;38.994;2023-01-29T16:07:25;24.15;;;12.93;;
50683;SDS011;36654;45.042;38.994;2023-01-29T16:09:51;24.25;;;11.68;;
50683;SDS011;36654;45.042;38.994;2023-01-29T16:12:19;19.85;;;13.23;;
50683;SDS011;36654;45.042;38.994;2023-01-29T16:14:45;23.65;;;13.55;;
50683;SDS011;36654;45.042;38.994;2023-01-29T16:17:22;25.58;;;13.60;;
50683;SDS011;36654;45.042;38.994;2023-01-29T16:19:56;21.08;;;12.95;;
50683;SDS011;36654;45.042;38.994;2023-01-29T16:22:24;28.73;;;13.70;;
50683;SDS011;36654;45.042;38.994;2023-01-29T16:24:53;24.70;;;13.75;;
50683;SDS011;36654;45.042;38.994;2023-01-29T16:27:19;28.02;;;14.23;;
50683;SDS011;36654;45.042;38.994;2023-01-29T16:29:44;26.50;;;13.73;;
50683;SDS011;36654;45.042;38.994;2023-01-29T16:32:10;27.00;;;14.20;;
50683;SDS011;36654;45.042;38.994;2023-01-29T16:34:41;28.77;;;14.55;;
50683;SDS011;36654;45.042;38.994;2023-01-29T16:37:21;31.50;;;15.57;;
50683;SDS011;36654;45.042;38.994;2023-01-29T16:39:49;32.13;;;15.82;;
50683;SDS011;36654;45.042;38.994;2023-01-29T16:45:01;30.48;;;15.73;;
50683;SDS011;36654;45.042;38.994;2023-01-29T16:47:32;27.10;;;15.45;;
50683;SDS011;36654;45.042;38.994;2023-01-29T16:52:31;34.80;;;16.85;;
50683;SDS011;36654;45.042;38.994;2023-01-29T16:57:36;42.10;;;20.25;;
50683;SDS011;36654;45.042;38.994;2023-01-29T17:00:24;36.55;;;19.45;;
50683;SDS011;36654;45.042;38.994;2023-01-29T17:02:53;34.58;;;19.13;;
50683;SDS011;36654;45.042;38.994;2023-01-29T17:05:32;40.60;;;20.88;;
50683;SDS011;36654;45.042;38.994;2023-01-29T17:07:59;37.92;;;21.80;;
50683;SDS011;36654;45.042;38.994;2023-01-29T17:10:26;41.13;;;22.13;;
50683;SDS011;36654;45.042;38.994;2023-01-29T17:18:19;41.92;;;22.17;;